<?xml version="1.0" encoding="UTF-8" standalone="no" ?>
<gpx xmlns="http://www.topografix.com/GPX/1/1" xmlns:xsi="http://www.w3.org/2001/XMLSchema-instance" xsi:schemaLocation="http://www.topografix.com/GPX/1/1 http://www.topografix.com/GPX/1/1/gpx.xsd" version="1.1" creator="VisuGPX - https://www.visugpx.com">
  <metadata>
    <name>Tour du Bois du Garnier</name>
    <desc><![CDATA[Tour du Bois du Garnier à partir du parking du col de l'Espaul : balade familiale]]></desc>
  </metadata>
  <trk>
    <name><![CDATA[ACTIVE LOG103456]]></name>
    <trkseg>
      <trkpt lat="43.57693" lon="7.05624">
        <ele>1678.969</ele>
        <time>2010-07-21T08:34:56Z</time>
      </trkpt>
    </trkseg>
  </trk>
  <trk>
    <name><![CDATA[ACTIVE LOG102432]]></name>
    <trkseg>
      <trkpt lat="44.11052" lon="6.95846">
        <ele>1680.666</ele>
        <time>2010-07-21T08:24:32Z</time>
      </trkpt>
      <trkpt lat="44.11054" lon="6.95861">
        <ele>1680.624</ele>
        <time>2010-07-21T08:24:54Z</time>
      </trkpt>
      <trkpt lat="44.11049" lon="6.95876">
        <ele>1681.12</ele>
        <time>2010-07-21T08:25:11Z</time>
      </trkpt>
      <trkpt lat="44.11047" lon="6.95899">
        <ele>1682.079</ele>
        <time>2010-07-21T08:25:26Z</time>
      </trkpt>
      <trkpt lat="44.11044" lon="6.95914">
        <ele>1682.259</ele>
        <time>2010-07-21T08:25:39Z</time>
      </trkpt>
      <trkpt lat="44.11044" lon="6.9592">
        <ele>1682.153</ele>
        <time>2010-07-21T08:25:44Z</time>
      </trkpt>
      <trkpt lat="44.11047" lon="6.95941">
        <ele>1681.982</ele>
        <time>2010-07-21T08:25:59Z</time>
      </trkpt>
      <trkpt lat="44.11049" lon="6.95951">
        <ele>1682.539</ele>
        <time>2010-07-21T08:26:06Z</time>
      </trkpt>
      <trkpt lat="44.11049" lon="6.95967">
        <ele>1682.864</ele>
        <time>2010-07-21T08:26:22Z</time>
      </trkpt>
      <trkpt lat="44.1105" lon="6.95978">
        <ele>1683.33</ele>
        <time>2010-07-21T08:26:41Z</time>
      </trkpt>
      <trkpt lat="44.11056" lon="6.96002">
        <ele>1684.361</ele>
        <time>2010-07-21T08:27:00Z</time>
      </trkpt>
      <trkpt lat="44.11056" lon="6.96033">
        <ele>1685.253</ele>
        <time>2010-07-21T08:27:20Z</time>
      </trkpt>
      <trkpt lat="44.11054" lon="6.96054">
        <ele>1686.401</ele>
        <time>2010-07-21T08:27:33Z</time>
      </trkpt>
      <trkpt lat="44.11052" lon="6.96065">
        <ele>1686.666</ele>
        <time>2010-07-21T08:27:51Z</time>
      </trkpt>
      <trkpt lat="44.11053" lon="6.9607">
        <ele>1686.735</ele>
        <time>2010-07-21T08:28:03Z</time>
      </trkpt>
      <trkpt lat="44.11054" lon="6.96091">
        <ele>1687.752</ele>
        <time>2010-07-21T08:28:21Z</time>
      </trkpt>
      <trkpt lat="44.11054" lon="6.96111">
        <ele>1688.571</ele>
        <time>2010-07-21T08:28:39Z</time>
      </trkpt>
      <trkpt lat="44.11059" lon="6.96124">
        <ele>1689.186</ele>
        <time>2010-07-21T08:28:57Z</time>
      </trkpt>
      <trkpt lat="44.1106" lon="6.96138">
        <ele>1689.727</ele>
        <time>2010-07-21T08:29:21Z</time>
      </trkpt>
      <trkpt lat="44.11057" lon="6.96166">
        <ele>1691.058</ele>
        <time>2010-07-21T08:29:42Z</time>
      </trkpt>
      <trkpt lat="44.11057" lon="6.9617">
        <ele>1690.835</ele>
        <time>2010-07-21T08:29:56Z</time>
      </trkpt>
      <trkpt lat="44.11058" lon="6.96173">
        <ele>1691.897</ele>
        <time>2010-07-21T08:30:10Z</time>
      </trkpt>
      <trkpt lat="44.1106" lon="6.96186">
        <ele>1693.085</ele>
        <time>2010-07-21T08:30:28Z</time>
      </trkpt>
      <trkpt lat="44.1106" lon="6.96188">
        <ele>1694.151</ele>
        <time>2010-07-21T08:31:00Z</time>
      </trkpt>
      <trkpt lat="44.11061" lon="6.96193">
        <ele>1694.9</ele>
        <time>2010-07-21T08:31:23Z</time>
      </trkpt>
      <trkpt lat="44.11062" lon="6.96208">
        <ele>1695.817</ele>
        <time>2010-07-21T08:31:42Z</time>
      </trkpt>
      <trkpt lat="44.11067" lon="6.96233">
        <ele>1696.549</ele>
        <time>2010-07-21T08:32:03Z</time>
      </trkpt>
      <trkpt lat="44.11069" lon="6.96244">
        <ele>1697.609</ele>
        <time>2010-07-21T08:32:16Z</time>
      </trkpt>
      <trkpt lat="44.11071" lon="6.96262">
        <ele>1698.313</ele>
        <time>2010-07-21T08:32:36Z</time>
      </trkpt>
      <trkpt lat="44.11069" lon="6.9627">
        <ele>1699.095</ele>
        <time>2010-07-21T08:32:52Z</time>
      </trkpt>
      <trkpt lat="44.11066" lon="6.9629">
        <ele>1699.93</ele>
        <time>2010-07-21T08:33:09Z</time>
      </trkpt>
      <trkpt lat="44.11065" lon="6.96287">
        <ele>1700.767</ele>
        <time>2010-07-21T08:33:39Z</time>
      </trkpt>
      <trkpt lat="44.11067" lon="6.96294">
        <ele>1701.729</ele>
        <time>2010-07-21T08:34:07Z</time>
      </trkpt>
      <trkpt lat="44.1107" lon="6.96317">
        <ele>1702.242</ele>
        <time>2010-07-21T08:34:21Z</time>
      </trkpt>
      <trkpt lat="44.11077" lon="6.96339">
        <ele>1702.229</ele>
        <time>2010-07-21T08:34:38Z</time>
      </trkpt>
      <trkpt lat="44.11074" lon="6.96352">
        <ele>1702.467</ele>
        <time>2010-07-21T08:34:53Z</time>
      </trkpt>
      <trkpt lat="44.11076" lon="6.96354">
        <ele>1703.841</ele>
        <time>2010-07-21T08:35:35Z</time>
      </trkpt>
      <trkpt lat="44.11083" lon="6.96375">
        <ele>1704.643</ele>
        <time>2010-07-21T08:35:52Z</time>
      </trkpt>
      <trkpt lat="44.11086" lon="6.96405">
        <ele>1705.139</ele>
        <time>2010-07-21T08:36:14Z</time>
      </trkpt>
      <trkpt lat="44.11088" lon="6.96425">
        <ele>1705.952</ele>
        <time>2010-07-21T08:36:26Z</time>
      </trkpt>
      <trkpt lat="44.11088" lon="6.96422">
        <ele>1706.08</ele>
        <time>2010-07-21T08:36:38Z</time>
      </trkpt>
      <trkpt lat="44.11094" lon="6.96438">
        <ele>1706.586</ele>
        <time>2010-07-21T08:36:54Z</time>
      </trkpt>
      <trkpt lat="44.1109" lon="6.9643">
        <ele>1707.381</ele>
        <time>2010-07-21T08:37:12Z</time>
      </trkpt>
      <trkpt lat="44.11093" lon="6.96437">
        <ele>1708.901</ele>
        <time>2010-07-21T08:38:01Z</time>
      </trkpt>
      <trkpt lat="44.11095" lon="6.96461">
        <ele>1709.851</ele>
        <time>2010-07-21T08:38:21Z</time>
      </trkpt>
      <trkpt lat="44.11094" lon="6.96478">
        <ele>1709.68</ele>
        <time>2010-07-21T08:38:41Z</time>
      </trkpt>
      <trkpt lat="44.11089" lon="6.96495">
        <ele>1709.16</ele>
        <time>2010-07-21T08:39:02Z</time>
      </trkpt>
      <trkpt lat="44.11087" lon="6.965">
        <ele>1709.145</ele>
        <time>2010-07-21T08:39:21Z</time>
      </trkpt>
      <trkpt lat="44.11086" lon="6.96497">
        <ele>1708.98</ele>
        <time>2010-07-21T08:39:38Z</time>
      </trkpt>
      <trkpt lat="44.11088" lon="6.96505">
        <ele>1708.956</ele>
        <time>2010-07-21T08:39:44Z</time>
      </trkpt>
      <trkpt lat="44.11092" lon="6.96524">
        <ele>1708.653</ele>
        <time>2010-07-21T08:40:00Z</time>
      </trkpt>
      <trkpt lat="44.11091" lon="6.96532">
        <ele>1709.175</ele>
        <time>2010-07-21T08:40:27Z</time>
      </trkpt>
      <trkpt lat="44.11091" lon="6.96538">
        <ele>1709.874</ele>
        <time>2010-07-21T08:41:09Z</time>
      </trkpt>
      <trkpt lat="44.11088" lon="6.96556">
        <ele>1711.443</ele>
        <time>2010-07-21T08:42:45Z</time>
      </trkpt>
      <trkpt lat="44.11083" lon="6.96584">
        <ele>1710.952</ele>
        <time>2010-07-21T08:43:04Z</time>
      </trkpt>
      <trkpt lat="44.11083" lon="6.9662">
        <ele>1711.588</ele>
        <time>2010-07-21T08:43:29Z</time>
      </trkpt>
      <trkpt lat="44.11085" lon="6.96643">
        <ele>1711.474</ele>
        <time>2010-07-21T08:43:48Z</time>
      </trkpt>
      <trkpt lat="44.11087" lon="6.96652">
        <ele>1711.963</ele>
        <time>2010-07-21T08:44:13Z</time>
      </trkpt>
      <trkpt lat="44.11087" lon="6.96666">
        <ele>1711.809</ele>
        <time>2010-07-21T08:44:36Z</time>
      </trkpt>
      <trkpt lat="44.11087" lon="6.96675">
        <ele>1712.038</ele>
        <time>2010-07-21T08:44:57Z</time>
      </trkpt>
      <trkpt lat="44.11085" lon="6.96698">
        <ele>1711.493</ele>
        <time>2010-07-21T08:45:13Z</time>
      </trkpt>
      <trkpt lat="44.11084" lon="6.96696">
        <ele>1712.699</ele>
        <time>2010-07-21T08:45:50Z</time>
      </trkpt>
      <trkpt lat="44.11082" lon="6.96694">
        <ele>1713.069</ele>
        <time>2010-07-21T08:46:12Z</time>
      </trkpt>
      <trkpt lat="44.11086" lon="6.96718">
        <ele>1713.153</ele>
        <time>2010-07-21T08:46:32Z</time>
      </trkpt>
      <trkpt lat="44.11087" lon="6.96732">
        <ele>1712.733</ele>
        <time>2010-07-21T08:46:46Z</time>
      </trkpt>
      <trkpt lat="44.11089" lon="6.96755">
        <ele>1712.323</ele>
        <time>2010-07-21T08:47:04Z</time>
      </trkpt>
      <trkpt lat="44.11093" lon="6.9678">
        <ele>1711.489</ele>
        <time>2010-07-21T08:47:22Z</time>
      </trkpt>
      <trkpt lat="44.11096" lon="6.96809">
        <ele>1711.145</ele>
        <time>2010-07-21T08:47:41Z</time>
      </trkpt>
      <trkpt lat="44.11096" lon="6.9682">
        <ele>1711.029</ele>
        <time>2010-07-21T08:47:56Z</time>
      </trkpt>
      <trkpt lat="44.11099" lon="6.96835">
        <ele>1711.292</ele>
        <time>2010-07-21T08:48:17Z</time>
      </trkpt>
      <trkpt lat="44.111" lon="6.96857">
        <ele>1710.584</ele>
        <time>2010-07-21T08:48:35Z</time>
      </trkpt>
      <trkpt lat="44.11099" lon="6.96861">
        <ele>1711.03</ele>
        <time>2010-07-21T08:48:59Z</time>
      </trkpt>
      <trkpt lat="44.11097" lon="6.96864">
        <ele>1711.273</ele>
        <time>2010-07-21T08:49:14Z</time>
      </trkpt>
      <trkpt lat="44.11102" lon="6.96866">
        <ele>1711.921</ele>
        <time>2010-07-21T08:50:11Z</time>
      </trkpt>
      <trkpt lat="44.11101" lon="6.96863">
        <ele>1712.565</ele>
        <time>2010-07-21T08:50:33Z</time>
      </trkpt>
      <trkpt lat="44.11101" lon="6.96857">
        <ele>1712.6</ele>
        <time>2010-07-21T08:50:44Z</time>
      </trkpt>
      <trkpt lat="44.11101" lon="6.9686">
        <ele>1713.051</ele>
        <time>2010-07-21T08:50:59Z</time>
      </trkpt>
      <trkpt lat="44.11094" lon="6.96878">
        <ele>1712.743</ele>
        <time>2010-07-21T08:51:15Z</time>
      </trkpt>
      <trkpt lat="44.11092" lon="6.96886">
        <ele>1712.346</ele>
        <time>2010-07-21T08:51:21Z</time>
      </trkpt>
      <trkpt lat="44.11088" lon="6.96905">
        <ele>1711.898</ele>
        <time>2010-07-21T08:51:38Z</time>
      </trkpt>
      <trkpt lat="44.11088" lon="6.96922">
        <ele>1711.421</ele>
        <time>2010-07-21T08:51:53Z</time>
      </trkpt>
      <trkpt lat="44.11089" lon="6.96932">
        <ele>1711.34</ele>
        <time>2010-07-21T08:52:16Z</time>
      </trkpt>
      <trkpt lat="44.11086" lon="6.96938">
        <ele>1711.746</ele>
        <time>2010-07-21T08:52:43Z</time>
      </trkpt>
      <trkpt lat="44.11084" lon="6.96955">
        <ele>1711.454</ele>
        <time>2010-07-21T08:53:00Z</time>
      </trkpt>
      <trkpt lat="44.11083" lon="6.96974">
        <ele>1711.579</ele>
        <time>2010-07-21T08:53:21Z</time>
      </trkpt>
      <trkpt lat="44.11081" lon="6.96995">
        <ele>1710.711</ele>
        <time>2010-07-21T08:53:40Z</time>
      </trkpt>
      <trkpt lat="44.1108" lon="6.96992">
        <ele>1710.912</ele>
        <time>2010-07-21T08:53:58Z</time>
      </trkpt>
      <trkpt lat="44.11079" lon="6.96995">
        <ele>1712.789</ele>
        <time>2010-07-21T08:54:58Z</time>
      </trkpt>
      <trkpt lat="44.11083" lon="6.97">
        <ele>1712.667</ele>
        <time>2010-07-21T08:55:09Z</time>
      </trkpt>
      <trkpt lat="44.11085" lon="6.97013">
        <ele>1711.853</ele>
        <time>2010-07-21T08:55:30Z</time>
      </trkpt>
      <trkpt lat="44.11078" lon="6.97038">
        <ele>1711.384</ele>
        <time>2010-07-21T08:55:52Z</time>
      </trkpt>
      <trkpt lat="44.11077" lon="6.97058">
        <ele>1710.551</ele>
        <time>2010-07-21T08:56:11Z</time>
      </trkpt>
      <trkpt lat="44.11075" lon="6.97079">
        <ele>1710.007</ele>
        <time>2010-07-21T08:56:31Z</time>
      </trkpt>
      <trkpt lat="44.11073" lon="6.97115">
        <ele>1709.471</ele>
        <time>2010-07-21T08:56:53Z</time>
      </trkpt>
      <trkpt lat="44.11068" lon="6.97146">
        <ele>1709.156</ele>
        <time>2010-07-21T08:57:13Z</time>
      </trkpt>
      <trkpt lat="44.11068" lon="6.97141">
        <ele>1709.452</ele>
        <time>2010-07-21T08:57:37Z</time>
      </trkpt>
      <trkpt lat="44.11069" lon="6.9714">
        <ele>1710.413</ele>
        <time>2010-07-21T08:58:19Z</time>
      </trkpt>
      <trkpt lat="44.11069" lon="6.9714">
        <ele>1710.374</ele>
        <time>2010-07-21T08:58:24Z</time>
      </trkpt>
      <trkpt lat="44.11072" lon="6.97139">
        <ele>1710.116</ele>
        <time>2010-07-21T08:58:48Z</time>
      </trkpt>
      <trkpt lat="44.11074" lon="6.97138">
        <ele>1711.292</ele>
        <time>2010-07-21T08:59:09Z</time>
      </trkpt>
      <trkpt lat="44.11074" lon="6.97144">
        <ele>1713.364</ele>
        <time>2010-07-21T09:01:50Z</time>
      </trkpt>
      <trkpt lat="44.11073" lon="6.97164">
        <ele>1713.692</ele>
        <time>2010-07-21T09:02:07Z</time>
      </trkpt>
      <trkpt lat="44.11074" lon="6.97171">
        <ele>1713.992</ele>
        <time>2010-07-21T09:02:21Z</time>
      </trkpt>
      <trkpt lat="44.1108" lon="6.972">
        <ele>1713.916</ele>
        <time>2010-07-21T09:02:44Z</time>
      </trkpt>
      <trkpt lat="44.1108" lon="6.97208">
        <ele>1713.911</ele>
        <time>2010-07-21T09:02:58Z</time>
      </trkpt>
      <trkpt lat="44.11078" lon="6.97236">
        <ele>1713.946</ele>
        <time>2010-07-21T09:03:20Z</time>
      </trkpt>
      <trkpt lat="44.11058" lon="6.97252">
        <ele>1711.882</ele>
        <time>2010-07-21T09:03:43Z</time>
      </trkpt>
      <trkpt lat="44.11034" lon="6.97254">
        <ele>1711.234</ele>
        <time>2010-07-21T09:04:04Z</time>
      </trkpt>
      <trkpt lat="44.11029" lon="6.97255">
        <ele>1710.838</ele>
        <time>2010-07-21T09:04:21Z</time>
      </trkpt>
      <trkpt lat="44.11028" lon="6.97255">
        <ele>1710.743</ele>
        <time>2010-07-21T09:04:24Z</time>
      </trkpt>
      <trkpt lat="44.11017" lon="6.97257">
        <ele>1710.587</ele>
        <time>2010-07-21T09:04:36Z</time>
      </trkpt>
      <trkpt lat="44.11016" lon="6.97256">
        <ele>1711.026</ele>
        <time>2010-07-21T09:05:03Z</time>
      </trkpt>
      <trkpt lat="44.11014" lon="6.97256">
        <ele>1711.547</ele>
        <time>2010-07-21T09:05:39Z</time>
      </trkpt>
      <trkpt lat="44.11005" lon="6.97255">
        <ele>1711.31</ele>
        <time>2010-07-21T09:05:53Z</time>
      </trkpt>
      <trkpt lat="44.10991" lon="6.97251">
        <ele>1710.751</ele>
        <time>2010-07-21T09:06:04Z</time>
      </trkpt>
      <trkpt lat="44.10988" lon="6.9725">
        <ele>1710.555</ele>
        <time>2010-07-21T09:06:25Z</time>
      </trkpt>
      <trkpt lat="44.1099" lon="6.97262">
        <ele>1709.594</ele>
        <time>2010-07-21T09:06:46Z</time>
      </trkpt>
      <trkpt lat="44.1099" lon="6.97263">
        <ele>1709.663</ele>
        <time>2010-07-21T09:06:55Z</time>
      </trkpt>
      <trkpt lat="44.10982" lon="6.97265">
        <ele>1709.587</ele>
        <time>2010-07-21T09:07:02Z</time>
      </trkpt>
      <trkpt lat="44.10973" lon="6.97267">
        <ele>1708.713</ele>
        <time>2010-07-21T09:07:11Z</time>
      </trkpt>
      <trkpt lat="44.1097" lon="6.97266">
        <ele>1708.283</ele>
        <time>2010-07-21T09:07:14Z</time>
      </trkpt>
      <trkpt lat="44.10958" lon="6.97274">
        <ele>1707.765</ele>
        <time>2010-07-21T09:07:29Z</time>
      </trkpt>
      <trkpt lat="44.10958" lon="6.97276">
        <ele>1707.615</ele>
        <time>2010-07-21T09:07:54Z</time>
      </trkpt>
      <trkpt lat="44.10958" lon="6.97279">
        <ele>1707.941</ele>
        <time>2010-07-21T09:08:32Z</time>
      </trkpt>
      <trkpt lat="44.10933" lon="6.97287">
        <ele>1706.77</ele>
        <time>2010-07-21T09:08:58Z</time>
      </trkpt>
      <trkpt lat="44.10931" lon="6.97284">
        <ele>1706.702</ele>
        <time>2010-07-21T09:09:03Z</time>
      </trkpt>
      <trkpt lat="44.10921" lon="6.97286">
        <ele>1705.405</ele>
        <time>2010-07-21T09:09:17Z</time>
      </trkpt>
      <trkpt lat="44.10918" lon="6.97284">
        <ele>1706.291</ele>
        <time>2010-07-21T09:10:03Z</time>
      </trkpt>
      <trkpt lat="44.10919" lon="6.97284">
        <ele>1706.158</ele>
        <time>2010-07-21T09:10:37Z</time>
      </trkpt>
      <trkpt lat="44.10915" lon="6.97279">
        <ele>1706.108</ele>
        <time>2010-07-21T09:10:50Z</time>
      </trkpt>
      <trkpt lat="44.10905" lon="6.97293">
        <ele>1704.546</ele>
        <time>2010-07-21T09:11:07Z</time>
      </trkpt>
      <trkpt lat="44.10901" lon="6.97297">
        <ele>1703.896</ele>
        <time>2010-07-21T09:11:29Z</time>
      </trkpt>
      <trkpt lat="44.10887" lon="6.97309">
        <ele>1703.297</ele>
        <time>2010-07-21T09:11:56Z</time>
      </trkpt>
      <trkpt lat="44.10872" lon="6.97326">
        <ele>1702.437</ele>
        <time>2010-07-21T09:12:25Z</time>
      </trkpt>
      <trkpt lat="44.10859" lon="6.97333">
        <ele>1701.547</ele>
        <time>2010-07-21T09:12:45Z</time>
      </trkpt>
      <trkpt lat="44.1086" lon="6.97334">
        <ele>1701.789</ele>
        <time>2010-07-21T09:13:09Z</time>
      </trkpt>
      <trkpt lat="44.10863" lon="6.97336">
        <ele>1701.964</ele>
        <time>2010-07-21T09:13:12Z</time>
      </trkpt>
      <trkpt lat="44.10867" lon="6.97358">
        <ele>1700.952</ele>
        <time>2010-07-21T09:13:29Z</time>
      </trkpt>
      <trkpt lat="44.10869" lon="6.97365">
        <ele>1700.618</ele>
        <time>2010-07-21T09:13:34Z</time>
      </trkpt>
      <trkpt lat="44.10876" lon="6.97389">
        <ele>1699.437</ele>
        <time>2010-07-21T09:13:53Z</time>
      </trkpt>
      <trkpt lat="44.10882" lon="6.97397">
        <ele>1698.473</ele>
        <time>2010-07-21T09:14:08Z</time>
      </trkpt>
      <trkpt lat="44.10882" lon="6.97391">
        <ele>1698.705</ele>
        <time>2010-07-21T09:14:37Z</time>
      </trkpt>
      <trkpt lat="44.10883" lon="6.97394">
        <ele>1698.538</ele>
        <time>2010-07-21T09:14:57Z</time>
      </trkpt>
      <trkpt lat="44.10885" lon="6.97394">
        <ele>1698.601</ele>
        <time>2010-07-21T09:15:13Z</time>
      </trkpt>
      <trkpt lat="44.10888" lon="6.97392">
        <ele>1698.656</ele>
        <time>2010-07-21T09:15:23Z</time>
      </trkpt>
      <trkpt lat="44.10895" lon="6.97404">
        <ele>1698.107</ele>
        <time>2010-07-21T09:15:36Z</time>
      </trkpt>
      <trkpt lat="44.10897" lon="6.9741">
        <ele>1697.742</ele>
        <time>2010-07-21T09:15:49Z</time>
      </trkpt>
      <trkpt lat="44.10909" lon="6.97416">
        <ele>1696.809</ele>
        <time>2010-07-21T09:16:04Z</time>
      </trkpt>
      <trkpt lat="44.10922" lon="6.97416">
        <ele>1695.952</ele>
        <time>2010-07-21T09:16:20Z</time>
      </trkpt>
      <trkpt lat="44.10938" lon="6.97409">
        <ele>1694.476</ele>
        <time>2010-07-21T09:16:35Z</time>
      </trkpt>
      <trkpt lat="44.1095" lon="6.97412">
        <ele>1693.87</ele>
        <time>2010-07-21T09:16:55Z</time>
      </trkpt>
      <trkpt lat="44.10963" lon="6.97418">
        <ele>1692.882</ele>
        <time>2010-07-21T09:17:11Z</time>
      </trkpt>
      <trkpt lat="44.10976" lon="6.97421">
        <ele>1692.616</ele>
        <time>2010-07-21T09:17:27Z</time>
      </trkpt>
      <trkpt lat="44.10979" lon="6.97423">
        <ele>1692.66</ele>
        <time>2010-07-21T09:17:48Z</time>
      </trkpt>
      <trkpt lat="44.10982" lon="6.97424">
        <ele>1692.065</ele>
        <time>2010-07-21T09:18:31Z</time>
      </trkpt>
      <trkpt lat="44.10997" lon="6.97423">
        <ele>1691.653</ele>
        <time>2010-07-21T09:18:56Z</time>
      </trkpt>
      <trkpt lat="44.11006" lon="6.97423">
        <ele>1691.338</ele>
        <time>2010-07-21T09:19:17Z</time>
      </trkpt>
      <trkpt lat="44.11009" lon="6.97421">
        <ele>1690.702</ele>
        <time>2010-07-21T09:19:29Z</time>
      </trkpt>
      <trkpt lat="44.11021" lon="6.97427">
        <ele>1690.196</ele>
        <time>2010-07-21T09:19:53Z</time>
      </trkpt>
      <trkpt lat="44.11023" lon="6.97437">
        <ele>1689.828</ele>
        <time>2010-07-21T09:20:22Z</time>
      </trkpt>
      <trkpt lat="44.11037" lon="6.97431">
        <ele>1688.736</ele>
        <time>2010-07-21T09:20:49Z</time>
      </trkpt>
      <trkpt lat="44.11046" lon="6.97433">
        <ele>1688.6</ele>
        <time>2010-07-21T09:21:05Z</time>
      </trkpt>
      <trkpt lat="44.11055" lon="6.97431">
        <ele>1688.27</ele>
        <time>2010-07-21T09:21:22Z</time>
      </trkpt>
      <trkpt lat="44.11063" lon="6.97432">
        <ele>1688.267</ele>
        <time>2010-07-21T09:21:55Z</time>
      </trkpt>
      <trkpt lat="44.11075" lon="6.97434">
        <ele>1687.926</ele>
        <time>2010-07-21T09:22:09Z</time>
      </trkpt>
      <trkpt lat="44.11093" lon="6.97436">
        <ele>1687.63</ele>
        <time>2010-07-21T09:22:26Z</time>
      </trkpt>
      <trkpt lat="44.11098" lon="6.97432">
        <ele>1687.733</ele>
        <time>2010-07-21T09:22:39Z</time>
      </trkpt>
      <trkpt lat="44.11102" lon="6.97431">
        <ele>1687.105</ele>
        <time>2010-07-21T09:22:55Z</time>
      </trkpt>
      <trkpt lat="44.11104" lon="6.9743">
        <ele>1686.967</ele>
        <time>2010-07-21T09:23:18Z</time>
      </trkpt>
      <trkpt lat="44.11108" lon="6.9743">
        <ele>1686.946</ele>
        <time>2010-07-21T09:23:24Z</time>
      </trkpt>
      <trkpt lat="44.11109" lon="6.97431">
        <ele>1686.41</ele>
        <time>2010-07-21T09:23:36Z</time>
      </trkpt>
      <trkpt lat="44.1111" lon="6.97431">
        <ele>1687.157</ele>
        <time>2010-07-21T09:24:50Z</time>
      </trkpt>
      <trkpt lat="44.11115" lon="6.9743">
        <ele>1686.358</ele>
        <time>2010-07-21T09:25:07Z</time>
      </trkpt>
      <trkpt lat="44.11123" lon="6.97427">
        <ele>1686.657</ele>
        <time>2010-07-21T09:25:32Z</time>
      </trkpt>
      <trkpt lat="44.1113" lon="6.97413">
        <ele>1685.656</ele>
        <time>2010-07-21T09:25:48Z</time>
      </trkpt>
      <trkpt lat="44.11136" lon="6.97409">
        <ele>1685.87</ele>
        <time>2010-07-21T09:26:02Z</time>
      </trkpt>
      <trkpt lat="44.11137" lon="6.97408">
        <ele>1685.618</ele>
        <time>2010-07-21T09:26:12Z</time>
      </trkpt>
      <trkpt lat="44.11149" lon="6.97396">
        <ele>1684.497</ele>
        <time>2010-07-21T09:26:31Z</time>
      </trkpt>
      <trkpt lat="44.11166" lon="6.97385">
        <ele>1683.482</ele>
        <time>2010-07-21T09:26:51Z</time>
      </trkpt>
      <trkpt lat="44.11171" lon="6.97374">
        <ele>1682.257</ele>
        <time>2010-07-21T09:27:07Z</time>
      </trkpt>
      <trkpt lat="44.11175" lon="6.97369">
        <ele>1682.077</ele>
        <time>2010-07-21T09:27:13Z</time>
      </trkpt>
      <trkpt lat="44.1119" lon="6.97348">
        <ele>1681.269</ele>
        <time>2010-07-21T09:27:37Z</time>
      </trkpt>
      <trkpt lat="44.11199" lon="6.97324">
        <ele>1680.202</ele>
        <time>2010-07-21T09:27:59Z</time>
      </trkpt>
      <trkpt lat="44.11203" lon="6.9732">
        <ele>1680.306</ele>
        <time>2010-07-21T09:28:20Z</time>
      </trkpt>
      <trkpt lat="44.112" lon="6.97323">
        <ele>1680.435</ele>
        <time>2010-07-21T09:28:45Z</time>
      </trkpt>
      <trkpt lat="44.11205" lon="6.97311">
        <ele>1680.049</ele>
        <time>2010-07-21T09:29:26Z</time>
      </trkpt>
      <trkpt lat="44.11205" lon="6.97291">
        <ele>1679.343</ele>
        <time>2010-07-21T09:29:43Z</time>
      </trkpt>
      <trkpt lat="44.11205" lon="6.9727">
        <ele>1679.077</ele>
        <time>2010-07-21T09:30:02Z</time>
      </trkpt>
      <trkpt lat="44.11207" lon="6.97253">
        <ele>1678.605</ele>
        <time>2010-07-21T09:30:14Z</time>
      </trkpt>
      <trkpt lat="44.11206" lon="6.97246">
        <ele>1678.35</ele>
        <time>2010-07-21T09:30:19Z</time>
      </trkpt>
      <trkpt lat="44.11208" lon="6.97225">
        <ele>1677.857</ele>
        <time>2010-07-21T09:30:35Z</time>
      </trkpt>
      <trkpt lat="44.11208" lon="6.97207">
        <ele>1677.116</ele>
        <time>2010-07-21T09:30:51Z</time>
      </trkpt>
      <trkpt lat="44.11215" lon="6.97194">
        <ele>1676.796</ele>
        <time>2010-07-21T09:31:06Z</time>
      </trkpt>
      <trkpt lat="44.11216" lon="6.97192">
        <ele>1676.463</ele>
        <time>2010-07-21T09:31:08Z</time>
      </trkpt>
      <trkpt lat="44.11216" lon="6.97192">
        <ele>1676.122</ele>
        <time>2010-07-21T09:31:27Z</time>
      </trkpt>
      <trkpt lat="44.11215" lon="6.97178">
        <ele>1676.413</ele>
        <time>2010-07-21T09:31:56Z</time>
      </trkpt>
      <trkpt lat="44.11215" lon="6.97167">
        <ele>1675.492</ele>
        <time>2010-07-21T09:32:14Z</time>
      </trkpt>
      <trkpt lat="44.11214" lon="6.97164">
        <ele>1675.359</ele>
        <time>2010-07-21T09:32:17Z</time>
      </trkpt>
      <trkpt lat="44.11221" lon="6.97144">
        <ele>1675.246</ele>
        <time>2010-07-21T09:32:34Z</time>
      </trkpt>
      <trkpt lat="44.11223" lon="6.97132">
        <ele>1674.88</ele>
        <time>2010-07-21T09:32:49Z</time>
      </trkpt>
      <trkpt lat="44.11224" lon="6.97118">
        <ele>1675.011</ele>
        <time>2010-07-21T09:33:09Z</time>
      </trkpt>
      <trkpt lat="44.11223" lon="6.97122">
        <ele>1675.473</ele>
        <time>2010-07-21T09:33:19Z</time>
      </trkpt>
      <trkpt lat="44.11224" lon="6.97121">
        <ele>1675.555</ele>
        <time>2010-07-21T09:33:38Z</time>
      </trkpt>
      <trkpt lat="44.11226" lon="6.97122">
        <ele>1674.897</ele>
        <time>2010-07-21T09:33:55Z</time>
      </trkpt>
      <trkpt lat="44.11229" lon="6.97118">
        <ele>1674.654</ele>
        <time>2010-07-21T09:34:10Z</time>
      </trkpt>
      <trkpt lat="44.11227" lon="6.97108">
        <ele>1674.762</ele>
        <time>2010-07-21T09:34:24Z</time>
      </trkpt>
      <trkpt lat="44.11232" lon="6.97104">
        <ele>1674.382</ele>
        <time>2010-07-21T09:34:29Z</time>
      </trkpt>
      <trkpt lat="44.11236" lon="6.97088">
        <ele>1673.881</ele>
        <time>2010-07-21T09:34:48Z</time>
      </trkpt>
      <trkpt lat="44.11238" lon="6.97079">
        <ele>1673.667</ele>
        <time>2010-07-21T09:34:54Z</time>
      </trkpt>
      <trkpt lat="44.11244" lon="6.97064">
        <ele>1672.882</ele>
        <time>2010-07-21T09:35:12Z</time>
      </trkpt>
      <trkpt lat="44.1125" lon="6.97052">
        <ele>1672.286</ele>
        <time>2010-07-21T09:35:33Z</time>
      </trkpt>
      <trkpt lat="44.11249" lon="6.97046">
        <ele>1671.586</ele>
        <time>2010-07-21T09:35:51Z</time>
      </trkpt>
      <trkpt lat="44.11248" lon="6.97032">
        <ele>1671.647</ele>
        <time>2010-07-21T09:36:00Z</time>
      </trkpt>
      <trkpt lat="44.1125" lon="6.97021">
        <ele>1671.686</ele>
        <time>2010-07-21T09:36:14Z</time>
      </trkpt>
      <trkpt lat="44.11252" lon="6.97023">
        <ele>1671.717</ele>
        <time>2010-07-21T09:37:55Z</time>
      </trkpt>
      <trkpt lat="44.11258" lon="6.97016">
        <ele>1671.444</ele>
        <time>2010-07-21T09:38:25Z</time>
      </trkpt>
      <trkpt lat="44.11266" lon="6.96992">
        <ele>1669.911</ele>
        <time>2010-07-21T09:38:46Z</time>
      </trkpt>
      <trkpt lat="44.11274" lon="6.96971">
        <ele>1669.332</ele>
        <time>2010-07-21T09:39:03Z</time>
      </trkpt>
      <trkpt lat="44.1128" lon="6.96958">
        <ele>1668.75</ele>
        <time>2010-07-21T09:39:21Z</time>
      </trkpt>
      <trkpt lat="44.11281" lon="6.9695">
        <ele>1668.772</ele>
        <time>2010-07-21T09:39:44Z</time>
      </trkpt>
      <trkpt lat="44.11286" lon="6.96935">
        <ele>1668.389</ele>
        <time>2010-07-21T09:39:57Z</time>
      </trkpt>
      <trkpt lat="44.11293" lon="6.96922">
        <ele>1667.807</ele>
        <time>2010-07-21T09:40:10Z</time>
      </trkpt>
      <trkpt lat="44.11296" lon="6.96915">
        <ele>1667.571</ele>
        <time>2010-07-21T09:40:17Z</time>
      </trkpt>
      <trkpt lat="44.11303" lon="6.96902">
        <ele>1666.904</ele>
        <time>2010-07-21T09:40:30Z</time>
      </trkpt>
      <trkpt lat="44.11306" lon="6.96899">
        <ele>1666.502</ele>
        <time>2010-07-21T09:40:53Z</time>
      </trkpt>
      <trkpt lat="44.11305" lon="6.96891">
        <ele>1666.187</ele>
        <time>2010-07-21T09:41:16Z</time>
      </trkpt>
      <trkpt lat="44.11305" lon="6.96888">
        <ele>1666.512</ele>
        <time>2010-07-21T09:41:28Z</time>
      </trkpt>
      <trkpt lat="44.11309" lon="6.96869">
        <ele>1666.171</ele>
        <time>2010-07-21T09:41:43Z</time>
      </trkpt>
      <trkpt lat="44.1131" lon="6.96868">
        <ele>1666.032</ele>
        <time>2010-07-21T09:41:44Z</time>
      </trkpt>
      <trkpt lat="44.11318" lon="6.96842">
        <ele>1664.947</ele>
        <time>2010-07-21T09:42:03Z</time>
      </trkpt>
      <trkpt lat="44.1132" lon="6.96835">
        <ele>1664.308</ele>
        <time>2010-07-21T09:42:07Z</time>
      </trkpt>
      <trkpt lat="44.11323" lon="6.96807">
        <ele>1663.499</ele>
        <time>2010-07-21T09:42:26Z</time>
      </trkpt>
      <trkpt lat="44.11321" lon="6.968">
        <ele>1663.895</ele>
        <time>2010-07-21T09:42:40Z</time>
      </trkpt>
      <trkpt lat="44.11318" lon="6.96792">
        <ele>1663.894</ele>
        <time>2010-07-21T09:42:59Z</time>
      </trkpt>
      <trkpt lat="44.11312" lon="6.96786">
        <ele>1663.664</ele>
        <time>2010-07-21T09:43:20Z</time>
      </trkpt>
      <trkpt lat="44.1131" lon="6.96784">
        <ele>1663.773</ele>
        <time>2010-07-21T09:43:44Z</time>
      </trkpt>
      <trkpt lat="44.11311" lon="6.96784">
        <ele>1663.895</ele>
        <time>2010-07-21T09:43:49Z</time>
      </trkpt>
      <trkpt lat="44.11306" lon="6.96784">
        <ele>1663.717</ele>
        <time>2010-07-21T09:44:09Z</time>
      </trkpt>
      <trkpt lat="44.113" lon="6.96774">
        <ele>1664.386</ele>
        <time>2010-07-21T09:44:32Z</time>
      </trkpt>
      <trkpt lat="44.11293" lon="6.96768">
        <ele>1664.538</ele>
        <time>2010-07-21T09:44:52Z</time>
      </trkpt>
      <trkpt lat="44.11286" lon="6.96751">
        <ele>1664.968</ele>
        <time>2010-07-21T09:45:08Z</time>
      </trkpt>
      <trkpt lat="44.1128" lon="6.96736">
        <ele>1665.769</ele>
        <time>2010-07-21T09:45:22Z</time>
      </trkpt>
      <trkpt lat="44.11271" lon="6.96728">
        <ele>1666.18</ele>
        <time>2010-07-21T09:45:37Z</time>
      </trkpt>
      <trkpt lat="44.11282" lon="6.96718">
        <ele>1667.215</ele>
        <time>2010-07-21T09:45:52Z</time>
      </trkpt>
      <trkpt lat="44.11284" lon="6.96717">
        <ele>1667.534</ele>
        <time>2010-07-21T09:45:54Z</time>
      </trkpt>
      <trkpt lat="44.113" lon="6.96709">
        <ele>1668.06</ele>
        <time>2010-07-21T09:46:07Z</time>
      </trkpt>
      <trkpt lat="44.11304" lon="6.9671">
        <ele>1668.503</ele>
        <time>2010-07-21T09:46:24Z</time>
      </trkpt>
      <trkpt lat="44.11307" lon="6.96702">
        <ele>1668.593</ele>
        <time>2010-07-21T09:46:52Z</time>
      </trkpt>
      <trkpt lat="44.11303" lon="6.96699">
        <ele>1668.364</ele>
        <time>2010-07-21T09:47:05Z</time>
      </trkpt>
      <trkpt lat="44.11303" lon="6.96694">
        <ele>1668.252</ele>
        <time>2010-07-21T09:47:16Z</time>
      </trkpt>
      <trkpt lat="44.11304" lon="6.96694">
        <ele>1668.578</ele>
        <time>2010-07-21T09:47:28Z</time>
      </trkpt>
      <trkpt lat="44.11303" lon="6.96696">
        <ele>1668.721</ele>
        <time>2010-07-21T09:47:39Z</time>
      </trkpt>
      <trkpt lat="44.11302" lon="6.96692">
        <ele>1668.671</ele>
        <time>2010-07-21T09:47:52Z</time>
      </trkpt>
      <trkpt lat="44.11294" lon="6.96684">
        <ele>1669.527</ele>
        <time>2010-07-21T09:48:09Z</time>
      </trkpt>
      <trkpt lat="44.11296" lon="6.96682">
        <ele>1669.788</ele>
        <time>2010-07-21T09:48:29Z</time>
      </trkpt>
      <trkpt lat="44.11296" lon="6.96682">
        <ele>1669.536</ele>
        <time>2010-07-21T09:48:57Z</time>
      </trkpt>
      <trkpt lat="44.113" lon="6.96699">
        <ele>1668.475</ele>
        <time>2010-07-21T09:49:11Z</time>
      </trkpt>
      <trkpt lat="44.113" lon="6.96696">
        <ele>1668.063</ele>
        <time>2010-07-21T09:49:30Z</time>
      </trkpt>
      <trkpt lat="44.11316" lon="6.96704">
        <ele>1668.377</ele>
        <time>2010-07-21T09:56:17Z</time>
      </trkpt>
      <trkpt lat="44.11317" lon="6.96701">
        <ele>1669.143</ele>
        <time>2010-07-21T09:58:21Z</time>
      </trkpt>
      <trkpt lat="44.11305" lon="6.96702">
        <ele>1669.497</ele>
        <time>2010-07-21T09:59:21Z</time>
      </trkpt>
      <trkpt lat="44.11303" lon="6.96705">
        <ele>1669.615</ele>
        <time>2010-07-21T10:00:29Z</time>
      </trkpt>
      <trkpt lat="44.11302" lon="6.96705">
        <ele>1669.867</ele>
        <time>2010-07-21T10:01:49Z</time>
      </trkpt>
      <trkpt lat="44.11303" lon="6.96702">
        <ele>1669.259</ele>
        <time>2010-07-21T10:07:44Z</time>
      </trkpt>
      <trkpt lat="44.11305" lon="6.96697">
        <ele>1670.129</ele>
        <time>2010-07-21T10:11:39Z</time>
      </trkpt>
      <trkpt lat="44.11304" lon="6.96693">
        <ele>1670.457</ele>
        <time>2010-07-21T10:11:42Z</time>
      </trkpt>
      <trkpt lat="44.11294" lon="6.96682">
        <ele>1671.707</ele>
        <time>2010-07-21T10:11:55Z</time>
      </trkpt>
      <trkpt lat="44.11291" lon="6.96675">
        <ele>1671.871</ele>
        <time>2010-07-21T10:12:09Z</time>
      </trkpt>
      <trkpt lat="44.113" lon="6.96679">
        <ele>1671.411</ele>
        <time>2010-07-21T10:12:41Z</time>
      </trkpt>
      <trkpt lat="44.11299" lon="6.96665">
        <ele>1671.738</ele>
        <time>2010-07-21T10:13:07Z</time>
      </trkpt>
      <trkpt lat="44.11302" lon="6.96682">
        <ele>1671.865</ele>
        <time>2010-07-21T10:14:11Z</time>
      </trkpt>
      <trkpt lat="44.11304" lon="6.96681">
        <ele>1672.05</ele>
        <time>2010-07-21T10:14:45Z</time>
      </trkpt>
      <trkpt lat="44.11305" lon="6.96681">
        <ele>1671.933</ele>
        <time>2010-07-21T10:15:13Z</time>
      </trkpt>
      <trkpt lat="44.113" lon="6.96681">
        <ele>1675.294</ele>
        <time>2010-07-21T10:16:00Z</time>
      </trkpt>
      <trkpt lat="44.11299" lon="6.96681">
        <ele>1674.459</ele>
        <time>2010-07-21T10:16:01Z</time>
      </trkpt>
      <trkpt lat="44.11296" lon="6.96675">
        <ele>1672.242</ele>
        <time>2010-07-21T10:16:19Z</time>
      </trkpt>
      <trkpt lat="44.11298" lon="6.96682">
        <ele>1671.891</ele>
        <time>2010-07-21T10:16:36Z</time>
      </trkpt>
      <trkpt lat="44.11308" lon="6.96702">
        <ele>1670.463</ele>
        <time>2010-07-21T10:16:56Z</time>
      </trkpt>
      <trkpt lat="44.11309" lon="6.96702">
        <ele>1670.057</ele>
        <time>2010-07-21T10:17:06Z</time>
      </trkpt>
      <trkpt lat="44.11306" lon="6.96701">
        <ele>1670.379</ele>
        <time>2010-07-21T10:17:30Z</time>
      </trkpt>
      <trkpt lat="44.11307" lon="6.96699">
        <ele>1670.511</ele>
        <time>2010-07-21T10:17:55Z</time>
      </trkpt>
      <trkpt lat="44.11306" lon="6.96698">
        <ele>1670.695</ele>
        <time>2010-07-21T10:18:20Z</time>
      </trkpt>
      <trkpt lat="44.11307" lon="6.96699">
        <ele>1670.709</ele>
        <time>2010-07-21T10:19:21Z</time>
      </trkpt>
      <trkpt lat="44.11307" lon="6.96699">
        <ele>1670.797</ele>
        <time>2010-07-21T10:20:07Z</time>
      </trkpt>
      <trkpt lat="44.11305" lon="6.967">
        <ele>1670.037</ele>
        <time>2010-07-21T10:20:56Z</time>
      </trkpt>
      <trkpt lat="44.11304" lon="6.96698">
        <ele>1670.636</ele>
        <time>2010-07-21T10:21:32Z</time>
      </trkpt>
      <trkpt lat="44.11307" lon="6.96699">
        <ele>1670.646</ele>
        <time>2010-07-21T10:21:56Z</time>
      </trkpt>
      <trkpt lat="44.11302" lon="6.96702">
        <ele>1670.43</ele>
        <time>2010-07-21T10:22:20Z</time>
      </trkpt>
      <trkpt lat="44.11302" lon="6.96701">
        <ele>1669.718</ele>
        <time>2010-07-21T10:23:42Z</time>
      </trkpt>
      <trkpt lat="44.11302" lon="6.967">
        <ele>1670.492</ele>
        <time>2010-07-21T10:24:54Z</time>
      </trkpt>
      <trkpt lat="44.11302" lon="6.967">
        <ele>1670.621</ele>
        <time>2010-07-21T10:25:36Z</time>
      </trkpt>
      <trkpt lat="44.11305" lon="6.96699">
        <ele>1670.476</ele>
        <time>2010-07-21T10:26:29Z</time>
      </trkpt>
      <trkpt lat="44.11304" lon="6.96699">
        <ele>1670.472</ele>
        <time>2010-07-21T10:27:04Z</time>
      </trkpt>
      <trkpt lat="44.11305" lon="6.96705">
        <ele>1670.602</ele>
        <time>2010-07-21T10:27:15Z</time>
      </trkpt>
      <trkpt lat="44.11304" lon="6.96712">
        <ele>1670.21</ele>
        <time>2010-07-21T10:27:33Z</time>
      </trkpt>
      <trkpt lat="44.11312" lon="6.96711">
        <ele>1668.996</ele>
        <time>2010-07-21T10:27:52Z</time>
      </trkpt>
      <trkpt lat="44.11316" lon="6.96703">
        <ele>1668.182</ele>
        <time>2010-07-21T10:28:15Z</time>
      </trkpt>
      <trkpt lat="44.11317" lon="6.9669">
        <ele>1666.938</ele>
        <time>2010-07-21T10:28:30Z</time>
      </trkpt>
      <trkpt lat="44.11318" lon="6.96677">
        <ele>1665.216</ele>
        <time>2010-07-21T10:28:42Z</time>
      </trkpt>
      <trkpt lat="44.11317" lon="6.96671">
        <ele>1664.635</ele>
        <time>2010-07-21T10:28:46Z</time>
      </trkpt>
      <trkpt lat="44.11318" lon="6.96664">
        <ele>1663.883</ele>
        <time>2010-07-21T10:28:58Z</time>
      </trkpt>
      <trkpt lat="44.1131" lon="6.96652">
        <ele>1662.547</ele>
        <time>2010-07-21T10:29:09Z</time>
      </trkpt>
      <trkpt lat="44.11308" lon="6.96647">
        <ele>1662.247</ele>
        <time>2010-07-21T10:29:12Z</time>
      </trkpt>
      <trkpt lat="44.11315" lon="6.96636">
        <ele>1661.082</ele>
        <time>2010-07-21T10:29:24Z</time>
      </trkpt>
      <trkpt lat="44.11332" lon="6.96628">
        <ele>1658.943</ele>
        <time>2010-07-21T10:29:39Z</time>
      </trkpt>
      <trkpt lat="44.11349" lon="6.96611">
        <ele>1655.908</ele>
        <time>2010-07-21T10:29:58Z</time>
      </trkpt>
      <trkpt lat="44.11354" lon="6.96603">
        <ele>1655.052</ele>
        <time>2010-07-21T10:30:05Z</time>
      </trkpt>
      <trkpt lat="44.11356" lon="6.96587">
        <ele>1654.078</ele>
        <time>2010-07-21T10:30:23Z</time>
      </trkpt>
      <trkpt lat="44.11361" lon="6.96571">
        <ele>1652.413</ele>
        <time>2010-07-21T10:30:38Z</time>
      </trkpt>
      <trkpt lat="44.11362" lon="6.9657">
        <ele>1652.037</ele>
        <time>2010-07-21T10:30:39Z</time>
      </trkpt>
      <trkpt lat="44.11364" lon="6.96564">
        <ele>1651.559</ele>
        <time>2010-07-21T10:30:44Z</time>
      </trkpt>
      <trkpt lat="44.11366" lon="6.96555">
        <ele>1650.714</ele>
        <time>2010-07-21T10:30:53Z</time>
      </trkpt>
      <trkpt lat="44.11368" lon="6.96545">
        <ele>1649.299</ele>
        <time>2010-07-21T10:31:02Z</time>
      </trkpt>
      <trkpt lat="44.11371" lon="6.9653">
        <ele>1648.337</ele>
        <time>2010-07-21T10:31:18Z</time>
      </trkpt>
      <trkpt lat="44.11371" lon="6.9653">
        <ele>1648.394</ele>
        <time>2010-07-21T10:31:19Z</time>
      </trkpt>
      <trkpt lat="44.1137" lon="6.96524">
        <ele>1647.972</ele>
        <time>2010-07-21T10:31:36Z</time>
      </trkpt>
      <trkpt lat="44.1137" lon="6.96526">
        <ele>1648.074</ele>
        <time>2010-07-21T10:31:38Z</time>
      </trkpt>
      <trkpt lat="44.11369" lon="6.96532">
        <ele>1648.346</ele>
        <time>2010-07-21T10:31:56Z</time>
      </trkpt>
      <trkpt lat="44.11369" lon="6.96533">
        <ele>1648.115</ele>
        <time>2010-07-21T10:33:36Z</time>
      </trkpt>
      <trkpt lat="44.11368" lon="6.96532">
        <ele>1647.876</ele>
        <time>2010-07-21T10:33:57Z</time>
      </trkpt>
      <trkpt lat="44.11369" lon="6.96534">
        <ele>1648.911</ele>
        <time>2010-07-21T10:34:26Z</time>
      </trkpt>
      <trkpt lat="44.11367" lon="6.96527">
        <ele>1650.769</ele>
        <time>2010-07-21T10:36:12Z</time>
      </trkpt>
      <trkpt lat="44.11367" lon="6.96513">
        <ele>1652.02</ele>
        <time>2010-07-21T10:36:28Z</time>
      </trkpt>
      <trkpt lat="44.11364" lon="6.96506">
        <ele>1652.136</ele>
        <time>2010-07-21T10:36:39Z</time>
      </trkpt>
      <trkpt lat="44.11364" lon="6.96501">
        <ele>1652.645</ele>
        <time>2010-07-21T10:37:01Z</time>
      </trkpt>
      <trkpt lat="44.11362" lon="6.96487">
        <ele>1653.241</ele>
        <time>2010-07-21T10:37:23Z</time>
      </trkpt>
      <trkpt lat="44.11354" lon="6.96487">
        <ele>1654.806</ele>
        <time>2010-07-21T10:37:46Z</time>
      </trkpt>
      <trkpt lat="44.11356" lon="6.96469">
        <ele>1654.73</ele>
        <time>2010-07-21T10:38:08Z</time>
      </trkpt>
      <trkpt lat="44.11356" lon="6.96464">
        <ele>1654.859</ele>
        <time>2010-07-21T10:38:19Z</time>
      </trkpt>
      <trkpt lat="44.11356" lon="6.96455">
        <ele>1655.502</ele>
        <time>2010-07-21T10:38:35Z</time>
      </trkpt>
      <trkpt lat="44.11354" lon="6.96445">
        <ele>1656.839</ele>
        <time>2010-07-21T10:38:51Z</time>
      </trkpt>
      <trkpt lat="44.11353" lon="6.96438">
        <ele>1657.876</ele>
        <time>2010-07-21T10:39:03Z</time>
      </trkpt>
      <trkpt lat="44.1135" lon="6.96431">
        <ele>1658.262</ele>
        <time>2010-07-21T10:39:16Z</time>
      </trkpt>
      <trkpt lat="44.11347" lon="6.96425">
        <ele>1659.826</ele>
        <time>2010-07-21T10:39:28Z</time>
      </trkpt>
      <trkpt lat="44.11344" lon="6.96429">
        <ele>1661.483</ele>
        <time>2010-07-21T10:39:40Z</time>
      </trkpt>
      <trkpt lat="44.11338" lon="6.96429">
        <ele>1662.411</ele>
        <time>2010-07-21T10:40:01Z</time>
      </trkpt>
      <trkpt lat="44.11334" lon="6.96421">
        <ele>1664.309</ele>
        <time>2010-07-21T10:40:19Z</time>
      </trkpt>
      <trkpt lat="44.11328" lon="6.96412">
        <ele>1666.581</ele>
        <time>2010-07-21T10:40:38Z</time>
      </trkpt>
      <trkpt lat="44.11322" lon="6.96402">
        <ele>1667.914</ele>
        <time>2010-07-21T10:41:05Z</time>
      </trkpt>
      <trkpt lat="44.11319" lon="6.96394">
        <ele>1668.901</ele>
        <time>2010-07-21T10:41:22Z</time>
      </trkpt>
      <trkpt lat="44.11317" lon="6.96388">
        <ele>1670.006</ele>
        <time>2010-07-21T10:41:37Z</time>
      </trkpt>
      <trkpt lat="44.11316" lon="6.96378">
        <ele>1671.96</ele>
        <time>2010-07-21T10:41:57Z</time>
      </trkpt>
      <trkpt lat="44.11313" lon="6.96368">
        <ele>1673.181</ele>
        <time>2010-07-21T10:42:11Z</time>
      </trkpt>
      <trkpt lat="44.11309" lon="6.96361">
        <ele>1674.136</ele>
        <time>2010-07-21T10:42:26Z</time>
      </trkpt>
      <trkpt lat="44.11304" lon="6.96355">
        <ele>1675.676</ele>
        <time>2010-07-21T10:42:39Z</time>
      </trkpt>
      <trkpt lat="44.11295" lon="6.96353">
        <ele>1676.508</ele>
        <time>2010-07-21T10:42:57Z</time>
      </trkpt>
      <trkpt lat="44.1129" lon="6.96351">
        <ele>1676.778</ele>
        <time>2010-07-21T10:43:04Z</time>
      </trkpt>
      <trkpt lat="44.11286" lon="6.96345">
        <ele>1677.172</ele>
        <time>2010-07-21T10:43:19Z</time>
      </trkpt>
      <trkpt lat="44.11283" lon="6.96341">
        <ele>1678.521</ele>
        <time>2010-07-21T10:43:36Z</time>
      </trkpt>
      <trkpt lat="44.11282" lon="6.96335">
        <ele>1679.034</ele>
        <time>2010-07-21T10:43:49Z</time>
      </trkpt>
      <trkpt lat="44.11287" lon="6.96331">
        <ele>1681.208</ele>
        <time>2010-07-21T10:44:08Z</time>
      </trkpt>
      <trkpt lat="44.11282" lon="6.96319">
        <ele>1683.061</ele>
        <time>2010-07-21T10:44:25Z</time>
      </trkpt>
      <trkpt lat="44.11284" lon="6.96322">
        <ele>1683.968</ele>
        <time>2010-07-21T10:44:37Z</time>
      </trkpt>
      <trkpt lat="44.11284" lon="6.96322">
        <ele>1683.813</ele>
        <time>2010-07-21T10:45:03Z</time>
      </trkpt>
      <trkpt lat="44.11276" lon="6.96315">
        <ele>1686.933</ele>
        <time>2010-07-21T10:45:21Z</time>
      </trkpt>
      <trkpt lat="44.11269" lon="6.96306">
        <ele>1689.343</ele>
        <time>2010-07-21T10:45:37Z</time>
      </trkpt>
      <trkpt lat="44.11252" lon="6.96295">
        <ele>1691.784</ele>
        <time>2010-07-21T10:45:52Z</time>
      </trkpt>
      <trkpt lat="44.11251" lon="6.96287">
        <ele>1693.246</ele>
        <time>2010-07-21T10:46:07Z</time>
      </trkpt>
      <trkpt lat="44.11245" lon="6.9628">
        <ele>1696.293</ele>
        <time>2010-07-21T10:46:24Z</time>
      </trkpt>
      <trkpt lat="44.11238" lon="6.96271">
        <ele>1697.994</ele>
        <time>2010-07-21T10:46:35Z</time>
      </trkpt>
      <trkpt lat="44.11233" lon="6.9627">
        <ele>1700.201</ele>
        <time>2010-07-21T10:46:54Z</time>
      </trkpt>
      <trkpt lat="44.11232" lon="6.96269">
        <ele>1700.398</ele>
        <time>2010-07-21T10:48:17Z</time>
      </trkpt>
      <trkpt lat="44.1123" lon="6.96269">
        <ele>1698.789</ele>
        <time>2010-07-21T10:48:59Z</time>
      </trkpt>
      <trkpt lat="44.11227" lon="6.9627">
        <ele>1699.954</ele>
        <time>2010-07-21T10:50:02Z</time>
      </trkpt>
      <trkpt lat="44.11233" lon="6.96273">
        <ele>1699.798</ele>
        <time>2010-07-21T10:50:23Z</time>
      </trkpt>
      <trkpt lat="44.11233" lon="6.96276">
        <ele>1700.134</ele>
        <time>2010-07-21T10:51:18Z</time>
      </trkpt>
      <trkpt lat="44.11234" lon="6.96272">
        <ele>1700.749</ele>
        <time>2010-07-21T10:51:32Z</time>
      </trkpt>
      <trkpt lat="44.11228" lon="6.96257">
        <ele>1702.649</ele>
        <time>2010-07-21T10:51:55Z</time>
      </trkpt>
      <trkpt lat="44.11223" lon="6.96244">
        <ele>1704.142</ele>
        <time>2010-07-21T10:52:09Z</time>
      </trkpt>
      <trkpt lat="44.11221" lon="6.96239">
        <ele>1704.831</ele>
        <time>2010-07-21T10:52:20Z</time>
      </trkpt>
      <trkpt lat="44.11211" lon="6.96229">
        <ele>1706.865</ele>
        <time>2010-07-21T10:52:32Z</time>
      </trkpt>
      <trkpt lat="44.11211" lon="6.96226">
        <ele>1707.273</ele>
        <time>2010-07-21T10:52:46Z</time>
      </trkpt>
      <trkpt lat="44.11207" lon="6.96218">
        <ele>1708.737</ele>
        <time>2010-07-21T10:53:06Z</time>
      </trkpt>
      <trkpt lat="44.11199" lon="6.96208">
        <ele>1710.73</ele>
        <time>2010-07-21T10:53:25Z</time>
      </trkpt>
      <trkpt lat="44.11197" lon="6.96205">
        <ele>1711.665</ele>
        <time>2010-07-21T10:53:44Z</time>
      </trkpt>
      <trkpt lat="44.11195" lon="6.96197">
        <ele>1713.572</ele>
        <time>2010-07-21T10:54:43Z</time>
      </trkpt>
      <trkpt lat="44.11189" lon="6.9619">
        <ele>1715.447</ele>
        <time>2010-07-21T10:54:57Z</time>
      </trkpt>
      <trkpt lat="44.11181" lon="6.96185">
        <ele>1716.092</ele>
        <time>2010-07-21T10:55:08Z</time>
      </trkpt>
      <trkpt lat="44.11174" lon="6.96179">
        <ele>1716.428</ele>
        <time>2010-07-21T10:55:21Z</time>
      </trkpt>
      <trkpt lat="44.1117" lon="6.96176">
        <ele>1715.856</ele>
        <time>2010-07-21T10:55:36Z</time>
      </trkpt>
      <trkpt lat="44.11165" lon="6.96172">
        <ele>1716.008</ele>
        <time>2010-07-21T10:56:08Z</time>
      </trkpt>
      <trkpt lat="44.1116" lon="6.96168">
        <ele>1715.833</ele>
        <time>2010-07-21T10:56:36Z</time>
      </trkpt>
      <trkpt lat="44.11157" lon="6.96165">
        <ele>1715.959</ele>
        <time>2010-07-21T10:57:08Z</time>
      </trkpt>
      <trkpt lat="44.11158" lon="6.96157">
        <ele>1718.132</ele>
        <time>2010-07-21T10:57:34Z</time>
      </trkpt>
      <trkpt lat="44.11151" lon="6.96151">
        <ele>1717.773</ele>
        <time>2010-07-21T10:58:00Z</time>
      </trkpt>
      <trkpt lat="44.11155" lon="6.9615">
        <ele>1718.386</ele>
        <time>2010-07-21T10:58:19Z</time>
      </trkpt>
      <trkpt lat="44.11152" lon="6.96149">
        <ele>1718.984</ele>
        <time>2010-07-21T10:58:29Z</time>
      </trkpt>
      <trkpt lat="44.11141" lon="6.96134">
        <ele>1721.686</ele>
        <time>2010-07-21T10:58:56Z</time>
      </trkpt>
      <trkpt lat="44.1114" lon="6.96128">
        <ele>1723.801</ele>
        <time>2010-07-21T10:59:14Z</time>
      </trkpt>
      <trkpt lat="44.1114" lon="6.96114">
        <ele>1726.248</ele>
        <time>2010-07-21T10:59:32Z</time>
      </trkpt>
      <trkpt lat="44.11137" lon="6.96106">
        <ele>1727.947</ele>
        <time>2010-07-21T10:59:52Z</time>
      </trkpt>
      <trkpt lat="44.11134" lon="6.96092">
        <ele>1729.837</ele>
        <time>2010-07-21T11:00:07Z</time>
      </trkpt>
      <trkpt lat="44.1112" lon="6.96093">
        <ele>1731.178</ele>
        <time>2010-07-21T11:00:33Z</time>
      </trkpt>
      <trkpt lat="44.11117" lon="6.96092">
        <ele>1732.102</ele>
        <time>2010-07-21T11:00:56Z</time>
      </trkpt>
      <trkpt lat="44.11112" lon="6.96087">
        <ele>1734.158</ele>
        <time>2010-07-21T11:01:18Z</time>
      </trkpt>
      <trkpt lat="44.11096" lon="6.96072">
        <ele>1733.195</ele>
        <time>2010-07-21T11:01:47Z</time>
      </trkpt>
      <trkpt lat="44.11089" lon="6.96067">
        <ele>1732.998</ele>
        <time>2010-07-21T11:02:29Z</time>
      </trkpt>
      <trkpt lat="44.11082" lon="6.96065">
        <ele>1733.197</ele>
        <time>2010-07-21T11:02:49Z</time>
      </trkpt>
      <trkpt lat="44.11087" lon="6.96058">
        <ele>1736.298</ele>
        <time>2010-07-21T11:03:29Z</time>
      </trkpt>
      <trkpt lat="44.1109" lon="6.96043">
        <ele>1737.842</ele>
        <time>2010-07-21T11:03:48Z</time>
      </trkpt>
      <trkpt lat="44.11083" lon="6.96031">
        <ele>1738.704</ele>
        <time>2010-07-21T11:04:09Z</time>
      </trkpt>
      <trkpt lat="44.11094" lon="6.96022">
        <ele>1739.067</ele>
        <time>2010-07-21T11:04:36Z</time>
      </trkpt>
      <trkpt lat="44.11089" lon="6.96009">
        <ele>1738.968</ele>
        <time>2010-07-21T11:04:48Z</time>
      </trkpt>
      <trkpt lat="44.1109" lon="6.96004">
        <ele>1738.991</ele>
        <time>2010-07-21T11:04:51Z</time>
      </trkpt>
      <trkpt lat="44.11084" lon="6.95988">
        <ele>1740.87</ele>
        <time>2010-07-21T11:05:06Z</time>
      </trkpt>
      <trkpt lat="44.11079" lon="6.95978">
        <ele>1741.868</ele>
        <time>2010-07-21T11:05:32Z</time>
      </trkpt>
      <trkpt lat="44.11066" lon="6.95969">
        <ele>1742.213</ele>
        <time>2010-07-21T11:05:59Z</time>
      </trkpt>
      <trkpt lat="44.11058" lon="6.9596">
        <ele>1742.667</ele>
        <time>2010-07-21T11:06:14Z</time>
      </trkpt>
      <trkpt lat="44.11073" lon="6.95962">
        <ele>1744.113</ele>
        <time>2010-07-21T11:06:29Z</time>
      </trkpt>
      <trkpt lat="44.11075" lon="6.95958">
        <ele>1744.307</ele>
        <time>2010-07-21T11:06:32Z</time>
      </trkpt>
      <trkpt lat="44.11078" lon="6.95949">
        <ele>1745.262</ele>
        <time>2010-07-21T11:06:47Z</time>
      </trkpt>
      <trkpt lat="44.11069" lon="6.95943">
        <ele>1746.079</ele>
        <time>2010-07-21T11:06:58Z</time>
      </trkpt>
      <trkpt lat="44.11064" lon="6.95937">
        <ele>1746.632</ele>
        <time>2010-07-21T11:07:13Z</time>
      </trkpt>
      <trkpt lat="44.11065" lon="6.95922">
        <ele>1748.555</ele>
        <time>2010-07-21T11:07:33Z</time>
      </trkpt>
      <trkpt lat="44.11064" lon="6.9591">
        <ele>1749.025</ele>
        <time>2010-07-21T11:07:47Z</time>
      </trkpt>
      <trkpt lat="44.11064" lon="6.95899">
        <ele>1749.603</ele>
        <time>2010-07-21T11:08:00Z</time>
      </trkpt>
      <trkpt lat="44.11064" lon="6.95894">
        <ele>1749.804</ele>
        <time>2010-07-21T11:08:04Z</time>
      </trkpt>
      <trkpt lat="44.11061" lon="6.95889">
        <ele>1749.689</ele>
        <time>2010-07-21T11:08:11Z</time>
      </trkpt>
      <trkpt lat="44.11053" lon="6.95881">
        <ele>1749.356</ele>
        <time>2010-07-21T11:08:21Z</time>
      </trkpt>
      <trkpt lat="44.11047" lon="6.95877">
        <ele>1748.899</ele>
        <time>2010-07-21T11:08:33Z</time>
      </trkpt>
      <trkpt lat="44.11052" lon="6.95879">
        <ele>1748.654</ele>
        <time>2010-07-21T11:08:48Z</time>
      </trkpt>
      <trkpt lat="44.11052" lon="6.95877">
        <ele>1748.78</ele>
        <time>2010-07-21T11:08:55Z</time>
      </trkpt>
      <trkpt lat="44.11053" lon="6.95864">
        <ele>1748.891</ele>
        <time>2010-07-21T11:09:10Z</time>
      </trkpt>
      <trkpt lat="44.11055" lon="6.95846">
        <ele>1749.767</ele>
        <time>2010-07-21T11:09:29Z</time>
      </trkpt>
      <trkpt lat="44.1106" lon="6.95847">
        <ele>1749.942</ele>
        <time>2010-07-21T11:09:37Z</time>
      </trkpt>
      <trkpt lat="44.11053" lon="6.95834">
        <ele>1749.673</ele>
        <time>2010-07-21T11:09:58Z</time>
      </trkpt>
      <trkpt lat="44.11053" lon="6.95835">
        <ele>1750.02</ele>
        <time>2010-07-21T11:10:14Z</time>
      </trkpt>
      <trkpt lat="44.11053" lon="6.95836">
        <ele>1749.304</ele>
        <time>2010-07-21T11:10:34Z</time>
      </trkpt>
    </trkseg>
  </trk>
  <trk>
    <name><![CDATA[ACTIVE LOG162434]]></name>
    <trkseg>
      <trkpt lat="44.11053" lon="6.95836">
        <ele>1749.71</ele>
        <time>2010-07-21T14:24:34Z</time>
      </trkpt>
      <trkpt lat="44.11053" lon="6.95836">
        <ele>1749.279</ele>
        <time>2010-07-21T14:28:57Z</time>
      </trkpt>
    </trkseg>
  </trk>
  <trk>
    <name><![CDATA[ACTIVE LOG162957]]></name>
    <trkseg>
      <trkpt lat="44.11053" lon="6.95836">
        <ele>1750.011</ele>
        <time>2010-07-21T14:29:57Z</time>
      </trkpt>
      <trkpt lat="44.11053" lon="6.95836">
        <ele>1750.809</ele>
        <time>2010-07-21T14:34:34Z</time>
      </trkpt>
      <trkpt lat="44.11053" lon="6.95836">
        <ele>1749.168</ele>
        <time>2010-07-21T14:34:56Z</time>
      </trkpt>
      <trkpt lat="44.11053" lon="6.95836">
        <ele>1750.87</ele>
        <time>2010-07-21T14:35:31Z</time>
      </trkpt>
      <trkpt lat="44.11053" lon="6.95836">
        <ele>1749.171</ele>
        <time>2010-07-21T14:36:08Z</time>
      </trkpt>
      <trkpt lat="44.11053" lon="6.95836">
        <ele>1750.756</ele>
        <time>2010-07-21T14:36:32Z</time>
      </trkpt>
      <trkpt lat="44.11053" lon="6.95836">
        <ele>1749.242</ele>
        <time>2010-07-21T14:39:49Z</time>
      </trkpt>
      <trkpt lat="44.11053" lon="6.95836">
        <ele>1752.69</ele>
        <time>2010-07-21T14:40:06Z</time>
      </trkpt>
      <trkpt lat="44.11053" lon="6.95836">
        <ele>1749.313</ele>
        <time>2010-07-21T14:40:17Z</time>
      </trkpt>
      <trkpt lat="44.11053" lon="6.95836">
        <ele>1748.647</ele>
        <time>2010-07-21T14:42:34Z</time>
      </trkpt>
      <trkpt lat="44.11053" lon="6.95836">
        <ele>1750.283</ele>
        <time>2010-07-21T14:42:35Z</time>
      </trkpt>
      <trkpt lat="44.11053" lon="6.95836">
        <ele>1750.04</ele>
        <time>2010-07-21T14:42:36Z</time>
      </trkpt>
    </trkseg>
  </trk>
</gpx>